createdAt,value
2018-04-02T00:01:22.819Z,88.50
2018-04-02T00:03:57.566Z,86.77
2018-04-02T00:06:32.416Z,86.77
2018-04-02T00:09:06.929Z,84.97
2018-04-02T00:11:42.388Z,85.67
2018-04-02T00:14:17.082Z,85.40
2018-04-02T00:16:51.802Z,86.57
2018-04-02T00:19:26.589Z,83.90
2018-04-02T00:22:01.416Z,82.50
2018-04-02T00:24:36.074Z,84.47
2018-04-02T00:27:10.723Z,83.73
2018-04-02T00:29:45.758Z,83.67
2018-04-02T00:32:20.266Z,87.13
2018-04-02T00:34:54.895Z,85.30
2018-04-02T00:37:29.747Z,80.73
2018-04-02T00:40:04.502Z,83.53
2018-04-02T00:42:39.063Z,83.50
2018-04-02T00:45:13.676Z,80.07
2018-04-02T00:47:48.224Z,76.70
2018-04-02T00:50:24.070Z,79.03
2018-04-02T00:52:59.672Z,78.93
2018-04-02T00:55:34.395Z,77.20
2018-04-02T00:58:09.519Z,77.67
2018-04-02T01:00:44.013Z,78.93
2018-04-02T01:03:18.712Z,80.70
2018-04-02T01:05:54.147Z,80.60
2018-04-02T01:08:29.679Z,75.37
2018-04-02T01:11:04.278Z,78.40
2018-04-02T01:13:38.860Z,77.33
2018-04-02T01:16:13.662Z,76.97
2018-04-02T01:18:48.368Z,75.50
2018-04-02T01:21:22.952Z,75.30
2018-04-02T01:23:57.639Z,75.50
2018-04-02T01:26:32.366Z,74.50
2018-04-02T01:29:07.079Z,70.60
2018-04-02T01:31:42.366Z,70.87
2018-04-02T01:34:17.224Z,68.30
2018-04-02T01:36:52.203Z,68.73
2018-04-02T01:39:27.403Z,70.50
2018-04-02T01:42:02.438Z,73.77
2018-04-02T01:44:37.144Z,71.20
2018-04-02T01:47:11.539Z,71.90
2018-04-02T01:49:46.805Z,71.40
2018-04-02T01:52:21.398Z,68.93
2018-04-02T01:54:56.910Z,73.00
2018-04-02T01:57:31.624Z,73.53
2018-04-02T02:00:05.609Z,70.70
2018-04-02T02:02:40.000Z,71.57
2018-04-02T02:05:14.664Z,71.80
2018-04-02T02:07:49.594Z,72.83
2018-04-02T02:10:24.568Z,76.63
2018-04-02T02:12:59.436Z,74.07
2018-04-02T02:15:34.377Z,77.07
2018-04-02T02:18:08.950Z,71.00
2018-04-02T02:20:44.327Z,70.57
2018-04-02T02:23:19.758Z,70.03
2018-04-02T02:25:54.300Z,69.77
2018-04-02T02:28:29.261Z,71.13
2018-04-02T02:31:04.874Z,72.50
2018-04-02T02:33:39.466Z,71.87
2018-04-02T02:36:14.012Z,74.47
2018-04-02T02:38:48.808Z,72.43
2018-04-02T02:41:24.264Z,74.93
2018-04-02T02:43:58.815Z,73.23
2018-04-02T02:46:33.742Z,73.07
2018-04-02T02:49:08.424Z,73.87
2018-04-02T02:51:43.261Z,75.10
2018-04-02T02:54:17.905Z,76.13
2018-04-02T02:56:52.664Z,71.30
2018-04-02T02:59:28.838Z,74.23
2018-04-02T03:02:05.220Z,76.77
2018-04-02T03:04:40.828Z,73.70
2018-04-02T03:07:15.346Z,78.27
2018-04-02T03:09:49.963Z,74.30
2018-04-02T03:12:24.621Z,76.00
2018-04-02T03:14:59.566Z,74.50
2018-04-02T03:17:34.319Z,73.90
2018-04-02T03:20:09.698Z,73.67
2018-04-02T03:22:44.368Z,79.30
2018-04-02T03:25:19.589Z,74.73
2018-04-02T03:27:55.096Z,74.13
2018-04-02T03:30:30.602Z,78.17
2018-04-02T03:33:05.422Z,80.37
2018-04-02T03:35:40.422Z,76.57
2018-04-02T03:38:15.255Z,73.57
2018-04-02T03:40:50.073Z,75.80
2018-04-02T03:43:24.899Z,79.43
2018-04-02T03:45:59.906Z,78.07
2018-04-02T03:48:34.813Z,73.40
2018-04-02T03:51:10.220Z,74.10
2018-04-02T03:53:44.785Z,81.07
2018-04-02T03:56:19.712Z,77.53
2018-04-02T03:58:55.205Z,76.40
2018-04-02T04:01:30.913Z,80.87
2018-04-02T04:04:05.825Z,84.00
2018-04-02T04:06:41.307Z,81.37
2018-04-02T04:09:16.018Z,81.50
2018-04-02T04:11:50.824Z,84.17
2018-04-02T04:14:25.696Z,82.37
2018-04-02T04:17:01.174Z,82.43
2018-04-02T04:19:37.139Z,87.20
2018-04-02T04:22:11.910Z,89.57
2018-04-02T04:24:46.586Z,83.97
2018-04-02T04:27:21.213Z,86.13
2018-04-02T04:29:55.796Z,85.10
2018-04-02T04:32:30.576Z,87.50
2018-04-02T04:35:06.117Z,87.37
2018-04-02T04:37:40.902Z,93.53
2018-04-02T04:40:16.428Z,87.93
2018-04-02T04:42:51.553Z,87.57
2018-04-02T04:45:26.118Z,84.97
2018-04-02T04:48:01.554Z,86.53
2018-04-02T04:50:37.035Z,89.67
2018-04-02T04:53:13.055Z,87.60
2018-04-02T04:55:47.747Z,85.30
2018-04-02T04:58:22.504Z,84.40
2018-04-02T05:00:57.247Z,81.87
2018-04-02T05:03:32.926Z,84.37
2018-04-02T05:06:07.633Z,78.97
2018-04-02T05:08:42.329Z,79.23
2018-04-02T05:11:16.992Z,75.60
2018-04-02T05:13:51.634Z,75.40
2018-04-02T05:16:27.043Z,74.70
2018-04-02T05:19:01.768Z,76.40
2018-04-02T05:21:36.299Z,76.83
2018-04-02T05:24:10.587Z,74.43
2018-04-02T05:26:45.550Z,71.40
2018-04-02T05:29:21.249Z,74.70
2018-04-02T05:31:56.329Z,69.90
2018-04-02T05:34:30.988Z,67.87
2018-04-02T05:37:05.477Z,69.70
2018-04-02T05:39:40.165Z,72.47
2018-04-02T05:42:15.344Z,68.93
2018-04-02T05:44:49.869Z,70.97
2018-04-02T05:47:24.543Z,64.60
2018-04-02T05:49:59.334Z,64.60
2018-04-02T05:52:34.761Z,68.30
2018-04-02T05:55:09.591Z,64.07
2018-04-02T05:57:43.996Z,62.57
2018-04-02T06:00:18.610Z,62.50
2018-04-02T06:02:53.356Z,62.60
2018-04-02T06:05:29.083Z,61.77
2018-04-02T06:08:04.029Z,59.23
2018-04-02T06:10:38.998Z,60.23
2018-04-02T06:13:14.593Z,60.17
2018-04-02T06:15:50.224Z,57.63
2018-04-02T06:18:25.011Z,57.33
2018-04-02T06:20:59.657Z,58.03
2018-04-02T06:23:34.306Z,56.67
2018-04-02T06:26:09.056Z,58.70
2018-04-02T06:28:43.827Z,53.73
2018-04-02T06:31:18.575Z,53.77
2018-04-02T06:33:53.204Z,53.50
2018-04-02T06:36:27.797Z,51.10
2018-04-02T06:39:02.849Z,51.00
2018-04-02T06:41:38.155Z,50.57
2018-04-02T06:44:12.701Z,49.93
2018-04-02T06:46:47.491Z,52.03
2018-04-02T06:49:22.412Z,49.60
2018-04-02T06:51:57.184Z,49.10
2018-04-02T06:54:31.947Z,50.30
2018-04-02T06:57:07.235Z,49.27
2018-04-02T06:59:42.846Z,48.03
2018-04-02T07:02:17.657Z,48.83
2018-04-02T07:04:53.168Z,44.57
2018-04-02T07:07:27.899Z,47.13
2018-04-02T07:10:02.721Z,45.83
2018-04-02T07:12:38.512Z,44.60
2018-04-02T07:15:13.467Z,45.43
2018-04-02T07:17:48.131Z,43.33
2018-04-02T07:20:23.046Z,43.50
2018-04-02T07:22:57.487Z,44.23
2018-04-02T07:25:32.155Z,42.60
2018-04-02T07:28:07.012Z,42.90
2018-04-02T07:30:41.888Z,44.00
2018-04-02T07:33:16.745Z,40.87
2018-04-02T07:35:51.783Z,42.90
2018-04-02T07:38:27.086Z,41.47
2018-04-02T07:41:02.666Z,40.90
2018-04-02T07:43:37.378Z,40.17
2018-04-02T07:46:12.254Z,42.03
2018-04-02T07:48:46.897Z,39.73
2018-04-02T07:51:21.706Z,37.97
2018-04-02T07:53:56.460Z,35.63
2018-04-02T07:56:31.205Z,36.73
2018-04-02T07:59:05.900Z,34.77
2018-04-02T08:01:40.373Z,36.80
2018-04-02T08:04:15.393Z,35.73
2018-04-02T08:06:50.503Z,35.60
2018-04-02T08:09:25.310Z,35.27
2018-04-02T08:12:00.275Z,36.13
2018-04-02T08:14:35.076Z,36.13
2018-04-02T08:17:10.666Z,36.53
2018-04-02T08:19:45.102Z,34.40
2018-04-02T08:22:20.240Z,35.07
2018-04-02T08:24:54.632Z,36.73
2018-04-02T08:27:29.360Z,35.10
2018-04-02T08:30:03.866Z,34.93
2018-04-02T08:32:38.467Z,35.83
2018-04-02T08:35:13.554Z,35.00
2018-04-02T08:37:48.274Z,31.67
2018-04-02T08:40:23.791Z,32.90
2018-04-02T08:42:58.191Z,31.57
2018-04-02T08:45:32.870Z,31.10
2018-04-02T08:48:07.440Z,30.60
2018-04-02T08:50:42.126Z,30.40
2018-04-02T08:53:16.811Z,30.40
2018-04-02T08:55:51.586Z,31.67
2018-04-02T08:58:26.067Z,31.60
2018-04-02T09:01:00.770Z,34.13
2018-04-02T09:03:35.529Z,31.20
2018-04-02T09:06:10.313Z,31.30
2018-04-02T09:08:44.967Z,32.57
2018-04-02T09:11:19.369Z,28.00
2018-04-02T09:13:53.860Z,31.07
2018-04-02T09:16:29.263Z,30.00
2018-04-02T09:19:04.582Z,29.37
2018-04-02T09:21:39.472Z,29.23
2018-04-02T09:24:14.112Z,29.77
2018-04-02T09:26:48.822Z,28.57
2018-04-02T09:29:23.618Z,28.83
2018-04-02T09:31:58.244Z,28.13
2018-04-02T09:34:32.675Z,28.33
2018-04-02T09:37:08.115Z,28.33
2018-04-02T09:39:42.913Z,27.57
2018-04-02T09:42:17.774Z,27.50
2018-04-02T09:44:52.395Z,28.17
2018-04-02T09:47:26.952Z,27.17
2018-04-02T09:50:01.619Z,25.83
2018-04-02T09:52:36.350Z,27.93
2018-04-02T09:55:11.094Z,25.97
2018-04-02T09:57:46.689Z,23.97
2018-04-02T10:00:26.758Z,25.23
2018-04-02T10:03:01.557Z,24.90
2018-04-02T10:05:36.949Z,24.30
2018-04-02T10:08:11.757Z,24.37
2018-04-02T10:10:46.378Z,23.53
2018-04-02T10:13:20.921Z,20.97
2018-04-02T10:15:55.689Z,21.77
2018-04-02T10:18:30.280Z,21.00
2018-04-02T10:21:05.004Z,22.00
2018-04-02T10:23:39.644Z,19.67
2018-04-02T10:26:14.303Z,17.53
2018-04-02T10:28:49.364Z,17.50
2018-04-02T10:31:24.144Z,18.63
2018-04-02T10:33:58.859Z,18.10
2018-04-02T10:36:33.482Z,16.53
2018-04-02T10:39:08.096Z,17.10
2018-04-02T10:41:43.528Z,17.47
2018-04-02T10:44:19.124Z,16.60
2018-04-02T10:46:53.854Z,16.90
2018-04-02T10:49:28.131Z,17.33
2018-04-02T10:52:03.183Z,16.23
2018-04-02T10:54:37.747Z,16.20
2018-04-02T10:57:12.510Z,14.33
2018-04-02T10:59:47.265Z,14.57
2018-04-02T11:02:22.047Z,12.93
2018-04-02T11:04:57.407Z,11.83
2018-04-02T11:07:32.118Z,11.23
2018-04-02T11:10:08.072Z,11.80
2018-04-02T11:12:43.552Z,11.63
2018-04-02T11:15:18.161Z,12.10
2018-04-02T11:17:52.681Z,11.57
2018-04-02T11:20:27.797Z,10.90
2018-04-02T11:23:03.378Z,10.63
2018-04-02T11:25:38.189Z,10.20
2018-04-02T11:28:12.803Z,9.37
2018-04-02T11:30:47.207Z,8.60
2018-04-02T11:33:22.488Z,9.07
2018-04-02T11:35:57.208Z,7.33
2018-04-02T11:38:31.898Z,9.10
2018-04-02T11:41:07.368Z,9.50
2018-04-02T11:43:42.003Z,9.73
2018-04-02T11:46:16.602Z,7.80
2018-04-02T11:48:51.282Z,6.93
2018-04-02T11:51:25.894Z,7.07
2018-04-02T11:54:00.486Z,6.70
2018-04-02T11:56:35.845Z,6.03
2018-04-02T11:59:11.175Z,6.00
2018-04-02T12:01:45.963Z,5.87
2018-04-02T12:04:20.721Z,6.13
2018-04-02T12:06:55.343Z,5.03
2018-04-02T12:09:29.968Z,5.13
2018-04-02T12:12:05.385Z,5.33
2018-04-02T12:14:40.980Z,6.33
2018-04-02T12:17:15.805Z,8.00
2018-04-02T12:19:50.439Z,10.30
2018-04-02T12:22:25.772Z,10.90
2018-04-02T12:25:00.545Z,10.23
2018-04-02T12:27:35.350Z,11.30
2018-04-02T12:30:10.113Z,10.80
2018-04-02T12:32:44.737Z,9.97
2018-04-02T12:35:19.394Z,10.67
2018-04-02T12:37:53.943Z,10.40
2018-04-02T12:40:28.551Z,10.33
2018-04-02T12:43:03.254Z,10.60
2018-04-02T12:45:38.820Z,10.60
2018-04-02T12:48:13.606Z,10.10
2018-04-02T12:50:48.337Z,9.80
2018-04-02T12:53:23.788Z,8.93
2018-04-02T12:56:03.302Z,8.70
2018-04-02T12:58:38.821Z,9.73
2018-04-02T13:01:13.526Z,9.50
2018-04-02T13:03:49.399Z,10.13
2018-04-02T13:06:24.279Z,9.80
2018-04-02T13:08:58.799Z,9.40
2018-04-02T13:11:33.363Z,8.83
2018-04-02T13:14:08.103Z,8.40
2018-04-02T13:16:42.899Z,7.90
2018-04-02T13:19:17.542Z,8.37
2018-04-02T13:21:53.035Z,9.13
2018-04-02T13:24:27.863Z,9.00
2018-04-02T13:27:02.615Z,9.47
2018-04-02T13:29:37.293Z,9.80
2018-04-02T13:32:11.912Z,8.60
2018-04-02T13:34:46.475Z,8.00
2018-04-02T13:37:21.986Z,9.17
2018-04-02T13:39:56.592Z,8.40
2018-04-02T13:42:32.002Z,8.13
2018-04-02T13:45:06.704Z,7.47
2018-04-02T13:47:41.417Z,7.37
2018-04-02T13:50:16.116Z,7.47
2018-04-02T13:52:50.882Z,7.30
2018-04-02T13:55:25.537Z,7.20
2018-04-02T13:58:00.427Z,7.20
2018-04-02T14:00:34.982Z,6.60
2018-04-02T14:03:09.668Z,7.00
2018-04-02T14:05:45.070Z,6.60
2018-04-02T14:08:19.861Z,7.07
2018-04-02T14:10:55.310Z,5.87
2018-04-02T14:13:30.167Z,6.03
2018-04-02T14:16:04.711Z,5.80
2018-04-02T14:18:39.398Z,5.83
2018-04-02T14:21:14.710Z,6.10
2018-04-02T14:23:49.309Z,5.90
2018-04-02T14:26:23.925Z,5.53
2018-04-02T14:28:58.450Z,5.67
2018-04-02T14:31:33.039Z,6.03
2018-04-02T14:34:07.613Z,6.17
2018-04-02T14:36:42.248Z,5.70
2018-04-02T14:39:16.795Z,5.57
2018-04-02T14:41:52.289Z,5.90
2018-04-02T14:44:26.954Z,5.40
2018-04-02T14:47:02.403Z,5.57
2018-04-02T14:49:37.776Z,5.27
2018-04-02T14:52:12.578Z,5.13
2018-04-02T14:54:46.863Z,5.00
2018-04-02T14:57:21.599Z,4.83
2018-04-02T14:59:56.360Z,4.53
2018-04-02T15:02:32.048Z,4.07
2018-04-02T15:05:07.171Z,4.30
2018-04-02T15:07:41.704Z,4.77
2018-04-02T15:10:16.431Z,5.07
2018-04-02T15:12:51.011Z,4.93
2018-04-02T15:15:26.500Z,4.93
2018-04-02T15:18:01.016Z,4.10
2018-04-02T15:20:35.846Z,4.00
2018-04-02T15:23:10.769Z,3.20
2018-04-02T15:25:45.940Z,2.70
2018-04-02T15:28:20.750Z,2.87
2018-04-02T15:30:55.576Z,3.07
2018-04-02T15:33:30.121Z,3.30
2018-04-02T15:36:05.440Z,3.77
2018-04-02T15:38:40.035Z,4.10
2018-04-02T15:41:14.788Z,4.60
2018-04-02T15:46:14.699Z,4.00
2018-04-02T15:48:49.988Z,4.00
2018-04-02T15:51:25.280Z,3.47
2018-04-02T15:53:59.950Z,3.30
2018-04-02T15:56:34.709Z,3.53
2018-04-02T15:59:10.517Z,3.20
2018-04-02T16:01:45.390Z,3.20
2018-04-02T16:04:20.164Z,3.00
2018-04-02T16:06:55.564Z,3.07
2018-04-02T16:09:30.390Z,2.90
2018-04-02T16:12:04.994Z,3.10
2018-04-02T16:14:39.582Z,3.47
2018-04-02T16:17:14.495Z,3.97
2018-04-02T16:19:49.207Z,3.20
2018-04-02T16:22:23.879Z,3.10
2018-04-02T16:24:58.623Z,3.33
2018-04-02T16:27:33.967Z,3.80
2018-04-02T16:30:08.918Z,3.50
2018-04-02T16:32:44.523Z,3.00
2018-04-02T16:35:19.156Z,3.37
2018-04-02T16:37:54.084Z,3.70
2018-04-02T16:40:28.711Z,3.13
2018-04-02T16:43:03.388Z,3.10
2018-04-02T16:45:37.972Z,3.40
2018-04-02T16:48:12.725Z,3.40
2018-04-02T16:50:47.222Z,3.80
2018-04-02T16:53:21.833Z,3.20
2018-04-02T16:55:57.330Z,3.83
2018-04-02T16:58:32.361Z,3.40
2018-04-02T17:01:07.183Z,4.33
2018-04-02T17:03:41.738Z,4.00
2018-04-02T17:06:16.419Z,4.20
2018-04-02T17:08:51.919Z,4.60
2018-04-02T17:11:27.036Z,3.90
2018-04-02T17:14:03.210Z,4.10
2018-04-02T17:16:37.999Z,4.20
2018-04-02T17:19:13.678Z,4.20
2018-04-02T17:21:48.095Z,4.10
2018-04-02T17:24:22.907Z,4.10
2018-04-02T17:26:57.601Z,4.67
2018-04-02T17:29:33.046Z,4.70
2018-04-02T17:32:07.769Z,4.10
2018-04-02T17:34:42.650Z,4.80
2018-04-02T17:37:17.305Z,4.20
2018-04-02T17:39:51.952Z,4.20
2018-04-02T17:42:26.567Z,3.93
2018-04-02T17:45:02.021Z,4.00
2018-04-02T17:47:36.586Z,3.90
2018-04-02T17:50:11.291Z,3.80
2018-04-02T17:52:46.054Z,4.00
2018-04-02T17:55:20.697Z,4.80
2018-04-02T17:57:55.070Z,4.20
2018-04-02T18:00:29.491Z,4.00
2018-04-02T18:03:04.063Z,4.50
2018-04-02T18:05:39.200Z,4.53
2018-04-02T18:08:13.609Z,4.30
2018-04-02T18:10:48.320Z,4.20
2018-04-02T18:13:22.859Z,4.17
2018-04-02T18:15:57.443Z,4.20
2018-04-02T18:18:32.063Z,3.90
2018-04-02T18:21:06.791Z,4.40
2018-04-02T18:23:41.564Z,3.97
2018-04-02T18:26:16.265Z,3.80
2018-04-02T18:28:50.793Z,3.97
2018-04-02T18:31:25.444Z,4.70
2018-04-02T18:34:00.074Z,4.13
2018-04-02T18:36:35.775Z,4.60
2018-04-02T18:39:10.491Z,4.50
2018-04-02T18:41:45.145Z,4.33
2018-04-02T18:44:19.948Z,4.13
2018-04-02T18:46:54.469Z,4.40
2018-04-02T18:49:29.556Z,4.40
2018-04-02T18:52:04.192Z,4.53
2018-04-02T18:54:38.803Z,4.53
2018-04-02T18:57:14.131Z,4.60
2018-04-02T18:59:48.885Z,4.57
2018-04-02T19:02:24.064Z,4.00
2018-04-02T19:04:59.064Z,4.67
2018-04-02T19:07:33.914Z,5.07
2018-04-02T19:10:09.011Z,4.67
2018-04-02T19:12:43.721Z,5.53
2018-04-02T19:15:18.334Z,5.00
2018-04-02T19:17:52.899Z,4.60
2018-04-02T19:20:27.545Z,4.80
2018-04-02T19:23:02.231Z,4.83
2018-04-02T19:25:37.812Z,5.37
2018-04-02T19:28:12.673Z,5.30
2018-04-02T19:30:47.460Z,5.67
2018-04-02T19:33:22.069Z,5.47
2018-04-02T19:35:57.704Z,5.20
2018-04-02T19:38:33.051Z,6.50
2018-04-02T19:41:08.815Z,6.00
2018-04-02T19:43:43.534Z,6.23
2018-04-02T19:46:18.542Z,6.17
2018-04-02T19:48:53.278Z,6.03
2018-04-02T19:51:28.229Z,6.37
2018-04-02T19:54:03.913Z,5.73
2018-04-02T19:56:39.236Z,5.53
2018-04-02T19:59:14.554Z,5.47
2018-04-02T20:01:49.239Z,7.87
2018-04-02T20:04:23.776Z,6.47
2018-04-02T20:06:59.276Z,6.57
2018-04-02T20:09:33.967Z,5.80
2018-04-02T20:12:08.687Z,6.03
2018-04-02T20:14:43.888Z,6.10
2018-04-02T20:17:18.923Z,5.80
2018-04-02T20:19:53.608Z,7.00
2018-04-02T20:22:29.374Z,6.63
2018-04-02T20:25:04.130Z,6.23
2018-04-02T20:27:40.277Z,5.87
2018-04-02T20:30:15.165Z,5.93
2018-04-02T20:32:49.799Z,6.60
2018-04-02T20:35:24.421Z,6.70
2018-04-02T20:37:59.169Z,6.70
2018-04-02T20:40:33.812Z,6.50
2018-04-02T20:43:08.602Z,6.27
2018-04-02T20:45:43.246Z,6.80
2018-04-02T20:48:18.750Z,6.40
2018-04-02T20:50:53.951Z,6.00
2018-04-02T20:53:29.842Z,6.43
2018-04-02T20:56:04.544Z,6.70
2018-04-02T20:58:39.469Z,6.03
2018-04-02T21:01:14.404Z,6.17
2018-04-02T21:03:49.107Z,6.67
2018-04-02T21:06:24.411Z,5.97
2018-04-02T21:08:59.336Z,6.33
2018-04-02T21:11:34.587Z,5.90
2018-04-02T21:14:09.501Z,6.33
2018-04-02T21:16:44.265Z,5.83
2018-04-02T21:19:19.934Z,6.37
2018-04-02T21:21:54.255Z,6.27
2018-04-02T21:24:29.141Z,6.20
2018-04-02T21:27:04.680Z,6.50
2018-04-02T21:29:40.265Z,6.03
2018-04-02T21:32:15.054Z,6.10
2018-04-02T21:34:50.642Z,5.60
2018-04-02T21:37:25.533Z,6.57
2018-04-02T21:40:01.290Z,5.93
2018-04-02T21:42:35.883Z,5.73
2018-04-02T21:45:11.315Z,6.03
2018-04-02T21:47:46.077Z,5.70
2018-04-02T21:50:20.897Z,6.10
2018-04-02T21:52:56.363Z,5.80
2018-04-02T21:55:31.092Z,5.80
2018-04-02T21:58:05.749Z,6.13
2018-04-02T22:00:40.326Z,5.97
2018-04-02T22:03:14.925Z,6.17
2018-04-02T22:05:49.699Z,6.00
2018-04-02T22:08:24.371Z,6.10
2018-04-02T22:10:59.003Z,5.43
2018-04-02T22:13:33.455Z,5.20
2018-04-02T22:16:07.978Z,5.77
2018-04-02T22:18:42.748Z,5.70
2018-04-02T22:21:18.197Z,5.57
2018-04-02T22:23:53.642Z,5.47
2018-04-02T22:26:28.924Z,5.87
2018-04-02T22:29:04.286Z,5.80
2018-04-02T22:31:39.070Z,6.10
2018-04-02T22:34:14.043Z,5.37
2018-04-02T22:36:48.615Z,5.80
2018-04-02T22:39:23.951Z,5.33
2018-04-02T22:41:58.850Z,5.23
2018-04-02T22:44:33.720Z,5.80
2018-04-02T22:47:08.188Z,4.90
2018-04-02T22:49:44.296Z,5.67
2018-04-02T22:52:19.768Z,5.80
2018-04-02T22:54:54.375Z,5.67
2018-04-02T22:57:28.733Z,6.10
2018-04-02T23:00:03.531Z,6.57
2018-04-02T23:02:38.152Z,6.00
2018-04-02T23:05:12.900Z,5.73
2018-04-02T23:07:47.579Z,5.57
2018-04-02T23:10:22.310Z,5.47
2018-04-02T23:12:56.891Z,5.47
2018-04-02T23:15:31.534Z,5.20
2018-04-02T23:18:06.153Z,5.53
2018-04-02T23:20:41.071Z,5.57
2018-04-02T23:23:15.663Z,5.70
2018-04-02T23:25:50.451Z,4.60
2018-04-02T23:28:25.963Z,5.50
2018-04-02T23:31:00.863Z,5.10
2018-04-02T23:33:37.217Z,4.60
2018-04-02T23:36:12.692Z,4.20
2018-04-02T23:38:47.268Z,4.90
2018-04-02T23:41:22.103Z,4.50
2018-04-02T23:43:57.862Z,4.13
2018-04-02T23:46:32.898Z,4.43
2018-04-02T23:49:07.618Z,4.60
2018-04-02T23:51:42.408Z,3.90
2018-04-02T23:54:17.073Z,4.40
2018-04-02T23:56:52.384Z,3.73
2018-04-02T23:59:27.026Z,3.90
